createdAt,value
2018-07-20T00:00:04.958Z,4.43
2018-07-20T00:02:33.225Z,4.40
2018-07-20T00:05:01.538Z,4.80
2018-07-20T00:07:29.794Z,4.50
2018-07-20T00:09:58.073Z,4.53
2018-07-20T00:12:26.351Z,4.90
2018-07-20T00:14:54.627Z,4.70
2018-07-20T00:17:22.945Z,4.37
2018-07-20T00:19:51.239Z,4.20
2018-07-20T00:22:19.536Z,4.00
2018-07-20T00:24:47.816Z,4.90
2018-07-20T00:27:16.119Z,5.10
2018-07-20T00:29:44.417Z,4.77
2018-07-20T00:32:12.721Z,4.67
2018-07-20T00:34:40.979Z,4.90
2018-07-20T00:37:09.255Z,4.33
2018-07-20T00:39:37.521Z,4.80
2018-07-20T00:42:05.824Z,4.70
2018-07-20T00:44:34.104Z,4.63
2018-07-20T00:47:02.398Z,4.40
2018-07-20T00:49:30.660Z,5.70
2018-07-20T00:51:58.935Z,4.17
2018-07-20T00:54:27.199Z,4.53
2018-07-20T00:56:55.493Z,4.50
2018-07-20T00:59:23.775Z,4.77
2018-07-20T01:01:52.064Z,4.60
2018-07-20T01:04:20.340Z,4.80
2018-07-20T01:06:48.626Z,4.80
2018-07-20T01:09:16.915Z,4.93
2018-07-20T01:11:45.203Z,4.67
2018-07-20T01:14:13.475Z,5.43
2018-07-20T01:16:41.782Z,4.60
2018-07-20T01:19:10.090Z,5.13
2018-07-20T01:21:38.410Z,4.97
2018-07-20T01:24:06.818Z,5.00
2018-07-20T01:26:35.112Z,4.93
2018-07-20T01:29:03.434Z,5.20
2018-07-20T01:31:31.723Z,5.10
2018-07-20T01:33:59.989Z,5.00
2018-07-20T01:36:28.277Z,5.00
2018-07-20T01:38:56.543Z,5.20
2018-07-20T01:41:24.812Z,4.90
2018-07-20T01:43:53.092Z,5.27
2018-07-20T01:46:21.392Z,5.13
2018-07-20T01:48:49.660Z,4.90
2018-07-20T01:51:17.946Z,5.00
2018-07-20T01:53:46.205Z,5.10
2018-07-20T01:56:14.479Z,4.83
2018-07-20T01:58:42.753Z,5.13
2018-07-20T02:01:10.992Z,5.03
2018-07-20T02:03:39.298Z,4.20
2018-07-20T02:06:07.568Z,4.90
2018-07-20T02:08:35.841Z,5.00
2018-07-20T02:11:04.105Z,4.80
2018-07-20T02:13:32.413Z,4.80
2018-07-20T02:16:00.406Z,5.13
2018-07-20T02:18:28.686Z,5.00
2018-07-20T02:20:56.952Z,4.77
2018-07-20T02:23:25.216Z,5.47
2018-07-20T02:25:53.910Z,5.27
2018-07-20T02:28:22.173Z,5.50
2018-07-20T02:30:50.455Z,5.40
2018-07-20T02:33:18.766Z,5.47
2018-07-20T02:35:47.079Z,5.17
2018-07-20T02:38:15.355Z,5.27
2018-07-20T02:40:43.596Z,5.10
2018-07-20T02:43:11.901Z,5.67
2018-07-20T02:45:40.155Z,5.30
2018-07-20T02:48:08.432Z,5.70
2018-07-20T02:50:36.721Z,5.63
2018-07-20T02:53:05.012Z,5.13
2018-07-20T02:55:33.260Z,5.67
2018-07-20T02:58:01.540Z,5.27
2018-07-20T03:00:29.828Z,5.70
2018-07-20T03:02:58.114Z,5.40
2018-07-20T03:05:26.394Z,5.30
2018-07-20T03:07:54.693Z,5.23
2018-07-20T03:10:22.959Z,5.20
2018-07-20T03:12:51.239Z,5.20
2018-07-20T03:15:19.560Z,5.27
2018-07-20T03:17:47.864Z,5.10
2018-07-20T03:20:16.137Z,5.77
2018-07-20T03:22:44.412Z,5.60
2018-07-20T03:25:12.745Z,5.70
2018-07-20T03:27:41.023Z,5.47
2018-07-20T03:30:09.348Z,5.30
2018-07-20T03:32:37.644Z,5.47
2018-07-20T03:35:06.048Z,5.60
2018-07-20T03:37:34.533Z,5.30
2018-07-20T03:40:02.910Z,5.53
2018-07-20T03:42:31.337Z,5.50
2018-07-20T03:44:59.638Z,5.73
2018-07-20T03:47:27.911Z,5.87
2018-07-20T03:49:56.219Z,6.00
2018-07-20T03:52:24.507Z,5.90
2018-07-20T03:54:52.780Z,5.47
2018-07-20T03:57:21.057Z,5.87
2018-07-20T03:59:49.368Z,5.60
2018-07-20T04:02:17.670Z,5.57
2018-07-20T04:04:45.941Z,6.13
2018-07-20T04:07:14.252Z,5.80
2018-07-20T04:09:42.637Z,5.87
2018-07-20T04:12:10.902Z,6.20
2018-07-20T04:14:39.238Z,6.10
2018-07-20T04:17:07.576Z,5.97
2018-07-20T04:19:35.879Z,6.60
2018-07-20T04:22:04.221Z,6.73
2018-07-20T04:24:32.214Z,6.60
2018-07-20T04:27:00.471Z,7.50
2018-07-20T04:29:28.749Z,6.83
2018-07-20T04:31:57.007Z,6.53
2018-07-20T04:34:25.273Z,6.60
2018-07-20T04:36:53.614Z,6.87
2018-07-20T04:39:21.896Z,6.83
2018-07-20T04:41:50.225Z,6.73
2018-07-20T04:44:18.525Z,6.40
2018-07-20T04:46:46.775Z,6.33
2018-07-20T04:49:15.313Z,6.40
2018-07-20T04:51:43.602Z,6.03
2018-07-20T04:54:11.886Z,6.23
2018-07-20T04:56:40.156Z,5.87
2018-07-20T04:59:08.474Z,6.23
2018-07-20T05:01:36.750Z,6.10
2018-07-20T05:04:05.017Z,5.80
2018-07-20T05:06:33.331Z,6.40
2018-07-20T05:09:01.728Z,6.27
2018-07-20T05:11:30.042Z,6.30
2018-07-20T05:13:58.392Z,6.43
2018-07-20T05:16:26.688Z,6.80
2018-07-20T05:18:54.963Z,7.00
2018-07-20T05:21:23.269Z,6.50
2018-07-20T05:23:51.523Z,6.80
2018-07-20T05:26:19.805Z,6.83
2018-07-20T05:28:48.099Z,6.70
2018-07-20T05:31:16.389Z,6.17
2018-07-20T05:33:44.788Z,6.03
2018-07-20T05:36:13.156Z,6.27
2018-07-20T05:38:41.513Z,6.13
2018-07-20T05:41:10.173Z,6.13
2018-07-20T05:43:38.605Z,6.13
2018-07-20T05:46:06.935Z,7.07
2018-07-20T05:48:35.209Z,6.20
2018-07-20T05:51:03.512Z,6.20
2018-07-20T05:53:31.900Z,6.50
2018-07-20T05:56:00.119Z,6.80
2018-07-20T05:58:28.417Z,6.27
2018-07-20T06:00:56.728Z,6.80
2018-07-20T06:03:25.105Z,6.33
2018-07-20T06:05:53.389Z,6.93
2018-07-20T06:08:24.743Z,7.00
2018-07-20T06:10:53.136Z,6.30
2018-07-20T06:13:21.472Z,6.27
2018-07-20T06:15:49.733Z,7.00
2018-07-20T06:18:18.041Z,6.30
2018-07-20T06:20:46.377Z,6.27
2018-07-20T06:23:14.669Z,6.07
2018-07-20T06:25:43.008Z,6.20
2018-07-20T06:28:11.306Z,6.13
2018-07-20T06:30:39.607Z,5.60
2018-07-20T06:33:07.630Z,6.17
2018-07-20T06:35:35.940Z,5.90
2018-07-20T06:38:04.261Z,5.80
2018-07-20T06:40:32.577Z,5.97
2018-07-20T06:43:00.859Z,6.50
2018-07-20T06:45:29.279Z,5.97
2018-07-20T06:47:57.560Z,5.63
2018-07-20T06:50:25.850Z,5.70
2018-07-20T06:52:54.084Z,5.80
2018-07-20T06:55:22.384Z,6.07
2018-07-20T06:57:51.482Z,6.50
2018-07-20T07:00:19.771Z,5.60
2018-07-20T07:02:48.045Z,6.10
2018-07-20T07:05:16.335Z,6.20
2018-07-20T07:07:44.629Z,5.90
2018-07-20T07:10:12.924Z,5.37
2018-07-20T07:12:41.216Z,5.97
2018-07-20T07:15:09.555Z,5.67
2018-07-20T07:17:37.814Z,5.70
2018-07-20T07:20:06.143Z,5.60
2018-07-20T07:22:34.439Z,5.83
2018-07-20T07:25:02.722Z,5.43
2018-07-20T07:27:30.996Z,5.53
2018-07-20T07:29:59.255Z,5.27
2018-07-20T07:32:27.562Z,5.53
2018-07-20T07:34:55.572Z,5.33
2018-07-20T07:37:23.863Z,5.63
2018-07-20T07:39:52.173Z,5.83
2018-07-20T07:42:20.485Z,5.23
2018-07-20T07:44:48.788Z,5.10
2018-07-20T07:47:17.088Z,5.20
2018-07-20T07:49:45.360Z,4.87
2018-07-20T07:52:13.640Z,5.43
2018-07-20T07:54:41.942Z,5.53
2018-07-20T07:57:10.283Z,5.37
2018-07-20T07:59:38.572Z,4.57
2018-07-20T08:02:06.894Z,4.80
2018-07-20T08:04:35.218Z,4.90
2018-07-20T08:07:03.491Z,5.00
2018-07-20T08:09:31.772Z,5.07
2018-07-20T08:12:00.067Z,5.10
2018-07-20T08:14:28.349Z,5.30
2018-07-20T08:16:56.799Z,4.87
2018-07-20T08:19:25.088Z,5.23
2018-07-20T08:21:53.428Z,4.93
2018-07-20T08:24:21.718Z,5.80
2018-07-20T08:26:50.036Z,6.40
2018-07-20T08:29:18.306Z,5.07
2018-07-20T08:31:46.587Z,4.77
2018-07-20T08:34:14.861Z,4.80
2018-07-20T08:36:43.122Z,4.70
2018-07-20T08:39:11.507Z,4.67
2018-07-20T08:41:39.884Z,4.30
2018-07-20T08:44:08.189Z,5.30
2018-07-20T08:46:36.598Z,4.50
2018-07-20T08:49:04.977Z,4.90
2018-07-20T08:51:33.262Z,4.50
2018-07-20T08:54:01.631Z,4.27
2018-07-20T08:56:29.619Z,4.00
2018-07-20T08:58:57.958Z,3.90
2018-07-20T09:01:26.942Z,4.57
2018-07-20T09:03:55.262Z,4.43
2018-07-20T09:06:23.576Z,4.57
2018-07-20T09:08:52.074Z,4.57
2018-07-20T09:11:20.357Z,4.80
2018-07-20T09:13:48.963Z,4.20
2018-07-20T09:16:36.459Z,4.23
2018-07-20T09:19:05.020Z,3.60
2018-07-20T09:21:33.454Z,4.33
2018-07-20T09:24:01.787Z,4.60
2018-07-20T09:26:30.101Z,4.00
2018-07-20T09:28:58.546Z,3.50
2018-07-20T09:31:26.882Z,4.27
2018-07-20T09:33:55.221Z,3.90
2018-07-20T09:36:23.535Z,3.93
2018-07-20T09:39:10.100Z,3.47
2018-07-20T09:41:38.513Z,3.57
2018-07-20T09:44:06.826Z,3.40
2018-07-20T09:46:35.121Z,3.63
2018-07-20T09:49:03.471Z,3.10
2018-07-20T09:51:31.786Z,3.37
2018-07-20T09:54:00.068Z,2.93
2018-07-20T09:56:28.402Z,3.30
2018-07-20T09:58:56.716Z,3.37
2018-07-20T10:01:25.055Z,3.47
2018-07-20T10:03:53.365Z,3.70
2018-07-20T10:06:21.678Z,3.67
2018-07-20T10:08:49.991Z,3.20
2018-07-20T10:11:18.245Z,3.70
2018-07-20T10:13:46.573Z,3.10
2018-07-20T10:16:14.834Z,3.07
2018-07-20T10:18:43.112Z,3.47
2018-07-20T10:21:11.452Z,3.60
2018-07-20T10:23:39.826Z,3.33
2018-07-20T10:26:08.233Z,3.40
2018-07-20T10:28:36.569Z,3.33
2018-07-20T10:31:05.181Z,3.40
2018-07-20T10:33:33.554Z,3.60
2018-07-20T10:36:01.924Z,3.43
2018-07-20T10:38:30.192Z,2.80
2018-07-20T10:40:58.559Z,3.10
2018-07-20T10:43:26.979Z,3.13
2018-07-20T10:45:55.344Z,3.23
2018-07-20T10:48:23.721Z,3.27
2018-07-20T10:50:52.079Z,3.83
2018-07-20T10:53:20.492Z,3.10
2018-07-20T10:55:48.896Z,3.40
2018-07-20T10:58:17.242Z,3.40
2018-07-20T11:00:45.590Z,3.30
2018-07-20T11:03:14.003Z,3.50
2018-07-20T11:05:42.295Z,3.23
2018-07-20T11:08:10.683Z,3.20
2018-07-20T11:10:39.049Z,2.97
2018-07-20T11:13:07.456Z,2.90
2018-07-20T11:15:35.794Z,3.00
2018-07-20T11:18:04.270Z,3.10
2018-07-20T11:20:32.637Z,3.60
2018-07-20T11:23:00.922Z,3.23
2018-07-20T11:25:29.329Z,2.87
2018-07-20T11:27:57.696Z,3.30
2018-07-20T11:30:26.088Z,3.33
2018-07-20T11:32:54.421Z,3.30
2018-07-20T11:35:22.832Z,3.10
2018-07-20T11:37:51.192Z,2.90
2018-07-20T11:40:19.568Z,3.57
2018-07-20T11:42:47.944Z,3.13
2018-07-20T11:45:16.413Z,3.27
2018-07-20T11:47:44.793Z,3.27
2018-07-20T11:50:13.413Z,3.10
2018-07-20T11:52:41.791Z,3.60
2018-07-20T11:55:10.865Z,3.10
2018-07-20T11:57:39.140Z,3.40
2018-07-20T12:00:07.486Z,3.30
2018-07-20T12:02:35.778Z,3.40
2018-07-20T12:05:04.195Z,3.30
2018-07-20T12:07:32.471Z,2.80
2018-07-20T12:10:00.937Z,3.07
2018-07-20T12:12:29.327Z,3.20
2018-07-20T12:14:57.723Z,3.57
2018-07-20T12:17:26.008Z,3.33
2018-07-20T12:19:54.372Z,2.77
2018-07-20T12:22:22.650Z,3.17
2018-07-20T12:24:50.995Z,3.20
2018-07-20T12:27:19.413Z,3.20
2018-07-20T12:29:47.797Z,3.23
2018-07-20T12:32:16.121Z,2.73
2018-07-20T12:34:44.399Z,3.40
2018-07-20T12:37:13.120Z,2.80
2018-07-20T12:39:41.492Z,2.80
2018-07-20T12:42:09.873Z,3.10
2018-07-20T12:44:38.233Z,3.17
2018-07-20T12:47:06.612Z,2.90
2018-07-20T12:49:35.013Z,3.03
2018-07-20T12:52:03.456Z,2.63
2018-07-20T12:54:31.877Z,2.70
2018-07-20T12:57:00.301Z,2.77
2018-07-20T12:59:28.639Z,2.70
2018-07-20T13:01:57.003Z,2.73
2018-07-20T13:04:25.466Z,2.50
2018-07-20T13:06:53.756Z,2.80
2018-07-20T13:09:22.135Z,2.80
2018-07-20T13:11:50.623Z,2.90
2018-07-20T13:14:18.878Z,2.90
2018-07-20T13:16:47.268Z,2.73
2018-07-20T13:19:15.659Z,3.00
2018-07-20T13:21:44.061Z,2.77
2018-07-20T13:24:12.471Z,3.10
2018-07-20T13:26:40.763Z,2.70
2018-07-20T13:29:09.171Z,2.70
2018-07-20T13:31:37.845Z,2.50
2018-07-20T13:34:06.187Z,2.70
2018-07-20T13:36:34.520Z,2.80
2018-07-20T13:39:03.018Z,3.10
2018-07-20T13:41:31.412Z,2.80
2018-07-20T13:43:59.738Z,2.53
2018-07-20T13:46:28.045Z,2.80
2018-07-20T13:48:56.335Z,2.97
2018-07-20T13:51:24.671Z,2.97
2018-07-20T13:53:52.976Z,2.87
2018-07-20T13:56:21.271Z,2.80
2018-07-20T13:58:49.555Z,3.03
2018-07-20T14:01:17.854Z,2.80
2018-07-20T14:03:46.155Z,2.37
2018-07-20T14:06:14.434Z,2.70
2018-07-20T14:08:42.689Z,2.97
2018-07-20T14:11:11.050Z,2.80
2018-07-20T14:13:39.307Z,2.60
2018-07-20T14:16:07.666Z,2.97
2018-07-20T14:18:35.976Z,2.50
2018-07-20T14:21:04.293Z,2.80
2018-07-20T14:23:32.611Z,2.80
2018-07-20T14:26:00.917Z,3.00
2018-07-20T14:28:29.245Z,3.50
2018-07-20T14:30:57.537Z,2.80
2018-07-20T14:33:25.831Z,3.20
2018-07-20T14:35:54.150Z,2.87
2018-07-20T14:38:22.627Z,2.80
2018-07-20T14:40:51.001Z,2.90
2018-07-20T14:43:19.321Z,2.90
2018-07-20T14:45:47.635Z,2.80
2018-07-20T14:48:15.881Z,2.83
2018-07-20T14:50:44.162Z,2.93
2018-07-20T14:53:12.522Z,3.00
2018-07-20T14:55:40.859Z,2.87
2018-07-20T14:58:09.122Z,3.50
2018-07-20T15:00:37.435Z,2.93
2018-07-20T15:03:05.894Z,2.93
2018-07-20T15:05:34.155Z,2.63
2018-07-20T15:08:02.480Z,3.27
2018-07-20T15:10:30.773Z,2.60
2018-07-20T15:12:59.263Z,3.13
2018-07-20T15:15:27.508Z,3.00
2018-07-20T15:17:55.833Z,2.93
2018-07-20T15:20:24.078Z,2.80
2018-07-20T15:22:52.382Z,3.10
2018-07-20T15:25:20.683Z,2.90
2018-07-20T15:27:48.973Z,2.77
2018-07-20T15:30:17.273Z,3.10
2018-07-20T15:32:45.561Z,2.80
2018-07-20T15:35:13.967Z,3.10
2018-07-20T15:37:42.285Z,2.90
2018-07-20T15:40:10.636Z,3.30
2018-07-20T15:42:39.000Z,3.37
2018-07-20T15:45:07.326Z,2.83
2018-07-20T15:47:35.672Z,3.00
2018-07-20T15:50:04.443Z,2.70
2018-07-20T15:55:01.226Z,2.70
2018-07-20T15:57:29.985Z,2.90
2018-07-20T15:59:58.429Z,2.90
2018-07-20T16:02:26.676Z,2.77
2018-07-20T16:04:55.216Z,2.80
2018-07-20T16:07:23.573Z,3.10
2018-07-20T16:09:51.889Z,3.40
2018-07-20T16:12:20.229Z,2.97
2018-07-20T16:14:48.584Z,2.90
2018-07-20T16:17:16.914Z,3.10
2018-07-20T16:19:45.212Z,3.07
2018-07-20T16:22:13.720Z,3.20
2018-07-20T16:24:42.102Z,3.03
2018-07-20T16:27:10.439Z,3.00
2018-07-20T16:29:38.781Z,3.07
2018-07-20T16:32:07.456Z,2.93
2018-07-20T16:34:35.796Z,3.13
2018-07-20T16:37:04.198Z,3.00
2018-07-20T16:39:32.498Z,2.73
2018-07-20T16:42:00.824Z,3.33
2018-07-20T16:44:29.119Z,3.00
2018-07-20T16:46:57.470Z,3.30
2018-07-20T16:49:26.332Z,3.27
2018-07-20T16:51:54.634Z,3.00
2018-07-20T16:54:22.928Z,3.30
2018-07-20T16:56:51.232Z,3.07
2018-07-20T16:59:19.499Z,3.10
2018-07-20T17:01:47.794Z,3.20
2018-07-20T17:04:16.105Z,2.97
2018-07-20T17:06:44.402Z,3.33
2018-07-20T17:09:13.062Z,3.17
2018-07-20T17:11:41.601Z,3.27
2018-07-20T17:14:09.899Z,3.20
2018-07-20T17:16:38.222Z,3.33
2018-07-20T17:19:06.595Z,3.40
2018-07-20T17:21:34.910Z,3.70
2018-07-20T17:24:03.224Z,3.67
2018-07-20T17:26:31.536Z,3.53
2018-07-20T17:28:59.836Z,3.60
2018-07-20T17:31:28.127Z,3.57
2018-07-20T17:33:56.412Z,3.20
2018-07-20T17:36:24.812Z,3.33
2018-07-20T17:38:53.095Z,3.37
2018-07-20T17:41:21.415Z,3.37
2018-07-20T17:43:49.709Z,3.40
2018-07-20T17:46:18.004Z,3.20
2018-07-20T17:48:46.274Z,4.10
2018-07-20T17:51:14.560Z,3.50
2018-07-20T17:53:49.441Z,3.50
2018-07-20T17:56:20.731Z,4.50
2018-07-20T17:58:49.024Z,4.87
2018-07-20T18:01:17.342Z,4.07
2018-07-20T18:03:45.645Z,3.90
2018-07-20T18:06:14.036Z,3.80
2018-07-20T18:08:42.320Z,3.63
2018-07-20T18:11:10.573Z,3.80
2018-07-20T18:13:38.879Z,3.60
2018-07-20T18:16:06.866Z,3.70
2018-07-20T18:18:35.151Z,3.50
2018-07-20T18:21:03.423Z,3.53
2018-07-20T18:23:31.756Z,3.17
2018-07-20T18:26:00.098Z,3.47
2018-07-20T18:28:28.393Z,3.30
2018-07-20T18:30:56.696Z,3.37
2018-07-20T18:33:25.083Z,3.57
2018-07-20T18:35:53.355Z,3.60
2018-07-20T18:38:21.659Z,3.27
2018-07-20T18:40:50.057Z,3.37
2018-07-20T18:43:18.349Z,3.43
2018-07-20T18:45:46.692Z,3.43
2018-07-20T18:48:14.986Z,3.43
2018-07-20T18:50:43.286Z,3.70
2018-07-20T18:53:11.600Z,4.40
2018-07-20T18:55:39.675Z,4.00
2018-07-20T18:58:08.099Z,4.33
2018-07-20T19:00:36.519Z,4.37
2018-07-20T19:03:05.107Z,3.77
2018-07-20T19:05:33.409Z,4.70
2018-07-20T19:08:01.733Z,4.23
2018-07-20T19:10:30.046Z,3.30
2018-07-20T19:12:58.362Z,3.83
2018-07-20T19:15:28.005Z,4.10
2018-07-20T19:17:56.543Z,3.93
2018-07-20T19:20:24.835Z,3.87
2018-07-20T19:22:53.142Z,4.10
2018-07-20T19:25:21.433Z,4.43
2018-07-20T19:27:49.814Z,4.63
2018-07-20T19:30:18.129Z,4.00
2018-07-20T19:32:46.427Z,4.00
2018-07-20T19:35:14.667Z,3.80
2018-07-20T19:37:42.974Z,3.80
2018-07-20T19:40:11.364Z,4.30
2018-07-20T19:42:39.639Z,4.33
2018-07-20T19:45:08.013Z,4.50
2018-07-20T19:47:36.292Z,4.80
2018-07-20T19:50:04.704Z,5.43
2018-07-20T19:52:33.004Z,5.80
2018-07-20T19:55:01.298Z,4.47
2018-07-20T19:57:29.672Z,4.07
2018-07-20T19:59:58.007Z,5.93
2018-07-20T20:02:26.315Z,7.73
2018-07-20T20:04:54.690Z,5.10
2018-07-20T20:07:22.692Z,4.30
2018-07-20T20:09:51.008Z,4.20
2018-07-20T20:12:19.306Z,4.33
2018-07-20T20:14:47.602Z,4.53
2018-07-20T20:17:16.017Z,4.70
2018-07-20T20:19:44.467Z,4.10
2018-07-20T20:22:12.875Z,4.10
2018-07-20T20:24:41.210Z,4.07
2018-07-20T20:27:09.531Z,3.77
2018-07-20T20:29:37.857Z,3.90
2018-07-20T20:32:06.372Z,3.53
2018-07-20T20:34:34.692Z,3.50
2018-07-20T20:37:02.964Z,3.70
2018-07-20T20:39:31.262Z,3.60
2018-07-20T20:41:59.545Z,3.37
2018-07-20T20:44:27.841Z,3.83
2018-07-20T20:46:56.191Z,3.80
2018-07-20T20:49:24.688Z,3.53
2018-07-20T20:51:52.960Z,3.93
2018-07-20T20:54:21.398Z,3.90
2018-07-20T20:56:49.712Z,3.63
2018-07-20T20:59:18.761Z,4.50
2018-07-20T21:01:47.015Z,4.50
2018-07-20T21:04:15.759Z,4.37
2018-07-20T21:06:44.021Z,4.70
2018-07-20T21:09:12.396Z,4.07
2018-07-20T21:11:40.688Z,4.80
2018-07-20T21:14:09.062Z,4.20
2018-07-20T21:16:37.429Z,4.10
2018-07-20T21:19:05.740Z,4.80
2018-07-20T21:21:34.082Z,4.43
2018-07-20T21:24:02.372Z,4.30
2018-07-20T21:26:30.645Z,3.90
2018-07-20T21:28:58.942Z,3.60
2018-07-20T21:31:27.240Z,4.03
2018-07-20T21:33:55.566Z,4.17
2018-07-20T21:36:24.168Z,3.90
2018-07-20T21:38:52.492Z,4.20
2018-07-20T21:41:20.808Z,3.83
2018-07-20T21:43:49.104Z,4.23
2018-07-20T21:46:17.432Z,4.33
2018-07-20T21:48:45.782Z,3.67
2018-07-20T21:51:14.120Z,3.90
2018-07-20T21:53:42.564Z,4.20
2018-07-20T21:56:10.845Z,4.00
2018-07-20T21:58:39.169Z,6.57
2018-07-20T22:01:07.571Z,4.80
2018-07-20T22:03:35.821Z,4.30
2018-07-20T22:06:04.207Z,4.27
2018-07-20T22:08:32.478Z,4.30
2018-07-20T22:11:00.830Z,4.20
2018-07-20T22:13:29.121Z,4.80
2018-07-20T22:15:57.432Z,4.70
2018-07-20T22:18:25.705Z,5.10
2018-07-20T22:20:53.974Z,4.70
2018-07-20T22:23:22.291Z,4.13
2018-07-20T22:25:50.674Z,4.07
2018-07-20T22:28:18.950Z,4.07
2018-07-20T22:30:47.284Z,4.47
2018-07-20T22:33:15.559Z,4.17
2018-07-20T22:35:43.881Z,4.43
2018-07-20T22:38:12.177Z,4.60
2018-07-20T22:40:40.455Z,4.60
2018-07-20T22:43:08.757Z,4.03
2018-07-20T22:45:37.039Z,5.10
2018-07-20T22:48:05.318Z,5.23
2018-07-20T22:50:33.604Z,5.40
2018-07-20T22:53:01.892Z,5.30
2018-07-20T22:55:30.168Z,6.00
2018-07-20T22:57:58.454Z,4.93
2018-07-20T23:00:26.736Z,4.87
2018-07-20T23:02:54.758Z,4.60
2018-07-20T23:05:23.037Z,4.93
2018-07-20T23:07:51.323Z,4.60
2018-07-20T23:10:19.592Z,4.90
2018-07-20T23:12:47.916Z,4.60
2018-07-20T23:15:16.180Z,5.87
2018-07-20T23:17:44.476Z,6.47
2018-07-20T23:20:12.725Z,5.40
2018-07-20T23:22:41.043Z,5.00
2018-07-20T23:25:09.323Z,5.17
2018-07-20T23:27:37.604Z,4.67
2018-07-20T23:30:06.184Z,4.70
2018-07-20T23:32:34.472Z,4.57
2018-07-20T23:35:02.776Z,5.10
2018-07-20T23:37:31.058Z,4.83
2018-07-20T23:39:59.322Z,4.50
2018-07-20T23:42:27.625Z,4.90
2018-07-20T23:44:55.952Z,4.87
2018-07-20T23:47:24.295Z,4.60
2018-07-20T23:49:52.763Z,4.80
2018-07-20T23:52:21.084Z,4.90
2018-07-20T23:54:49.510Z,5.00
2018-07-20T23:57:17.804Z,5.47
2018-07-20T23:59:46.098Z,5.27
